Time;durP1;ratioP1;P1;durP2;ratioP2;P2;SDS_P1;SDS_P2;PMS_P1;PMS_P2;Temp;Humidity;BMP_temperature;BMP_pressure;BME280_temperature;BME280_humidity;BME280_pressure;Samples;Min_cycle;Max_cycle;Signal;HPM_P1;HPM_P2
2021/01/08 00:00:45;;;;;;;11.40;5.33;;;1.60;87.60;;;;;;5054225;28;20056;-73
2021/01/08 00:03:11;;;;;;;13.10;4.90;;;1.60;87.80;;;;;;5052710;28;20025;-73
2021/01/08 00:05:37;;;;;;;12.93;5.77;;;1.60;87.70;;;;;;5054471;28;20113;-73
2021/01/08 00:08:04;;;;;;;12.90;5.50;;;1.60;87.40;;;;;;5054261;28;20028;-73
2021/01/08 00:10:29;;;;;;;12.50;5.57;;;1.60;87.50;;;;;;5054050;28;20033;-73
2021/01/08 00:12:55;;;;;;;13.53;5.53;;;1.60;87.20;;;;;;5054487;28;20079;-73
2021/01/08 00:15:20;;;;;;;12.43;4.93;;;1.60;86.90;;;;;;5053755;28;20032;-73
2021/01/08 00:17:46;;;;;;;13.13;4.87;;;1.60;87.00;;;;;;5053081;28;20025;-73
2021/01/08 00:20:12;;;;;;;13.00;5.33;;;1.60;86.50;;;;;;5052235;28;20090;-73
2021/01/08 00:22:38;;;;;;;12.37;5.20;;;1.60;86.50;;;;;;5052953;28;20029;-73
2021/01/08 00:25:04;;;;;;;13.77;5.40;;;1.60;86.70;;;;;;5053922;28;20430;-73
2021/01/08 00:27:30;;;;;;;12.67;5.20;;;1.60;86.50;;;;;;5052261;28;20025;-73
2021/01/08 00:29:55;;;;;;;13.47;5.47;;;1.60;86.80;;;;;;5053985;28;20037;-73
2021/01/08 00:32:21;;;;;;;12.93;6.13;;;1.60;86.70;;;;;;5051930;28;20504;-73
2021/01/08 00:34:48;;;;;;;16.80;6.00;;;1.60;86.90;;;;;;5052677;28;20025;-73
2021/01/08 00:37:14;;;;;;;12.43;5.20;;;1.60;86.90;;;;;;5053336;28;20025;-73
2021/01/08 00:39:41;;;;;;;13.03;6.07;;;1.60;87.00;;;;;;5053878;28;20033;-73
2021/01/08 00:42:08;;;;;;;12.00;5.50;;;1.60;86.90;;;;;;5053880;28;20029;-73
2021/01/08 00:44:34;;;;;;;14.63;6.10;;;1.60;86.90;;;;;;5052744;28;20043;-73
2021/01/08 00:46:59;;;;;;;13.30;5.57;;;1.70;86.70;;;;;;5052462;28;20475;-73
2021/01/08 00:49:25;;;;;;;11.37;5.23;;;1.70;86.40;;;;;;5051828;28;20025;-73
2021/01/08 00:51:52;;;;;;;12.13;5.57;;;1.70;86.60;;;;;;5053261;28;20025;-73
2021/01/08 00:54:18;;;;;;;13.07;5.63;;;1.70;86.90;;;;;;5051546;28;20039;-73
2021/01/08 00:56:46;;;;;;;11.37;5.50;;;1.70;86.80;;;;;;5053338;28;20021;-73
2021/01/08 00:59:12;;;;;;;13.90;5.37;;;1.70;86.80;;;;;;5052947;28;20032;-73
2021/01/08 01:01:37;;;;;;;14.33;6.33;;;1.70;86.80;;;;;;5052244;28;20025;-73
2021/01/08 01:04:03;;;;;;;14.00;5.47;;;1.70;87.10;;;;;;5052350;28;20025;-73
2021/01/08 01:06:31;;;;;;;15.17;5.70;;;1.70;87.20;;;;;;5051569;28;20059;-73
2021/01/08 01:08:57;;;;;;;13.03;5.70;;;1.70;87.60;;;;;;5053418;28;20017;-73
2021/01/08 01:11:25;;;;;;;12.07;5.50;;;1.70;87.80;;;;;;5052649;28;20060;-73
2021/01/08 01:13:52;;;;;;;14.10;5.57;;;1.70;87.70;;;;;;5051969;28;20021;-74
2021/01/08 01:16:19;;;;;;;15.10;5.93;;;1.70;87.60;;;;;;5052696;28;20147;-73
2021/01/08 01:18:46;;;;;;;15.20;6.53;;;1.70;87.50;;;;;;5053178;28;20484;-73
2021/01/08 01:21:12;;;;;;;16.93;6.40;;;1.70;87.50;;;;;;5051302;28;20029;-73
2021/01/08 01:23:38;;;;;;;12.47;6.70;;;1.70;87.40;;;;;;5053163;28;20033;-73
2021/01/08 01:26:04;;;;;;;16.63;6.00;;;1.70;87.60;;;;;;5051743;28;20056;-73
2021/01/08 01:28:29;;;;;;;13.93;6.33;;;1.80;87.60;;;;;;5052456;28;20274;-73
2021/01/08 01:30:55;;;;;;;14.40;6.13;;;1.80;87.70;;;;;;5051570;28;20437;-73
2021/01/08 01:33:21;;;;;;;15.17;6.13;;;1.80;87.50;;;;;;5051188;28;20025;-73
2021/01/08 01:35:46;;;;;;;16.37;6.03;;;1.80;87.60;;;;;;5052920;28;20112;-73
2021/01/08 01:38:12;;;;;;;14.70;6.17;;;1.80;87.50;;;;;;5050987;28;20458;-73
2021/01/08 01:40:37;;;;;;;16.43;6.17;;;1.80;87.60;;;;;;5052834;28;20176;-73
2021/01/08 01:43:03;;;;;;;16.63;6.23;;;1.80;87.70;;;;;;5051560;28;20123;-73
2021/01/08 01:45:29;;;;;;;15.20;6.77;;;1.80;87.70;;;;;;5051909;28;20052;-73
2021/01/08 01:47:55;;;;;;;13.97;6.20;;;1.80;87.80;;;;;;5051405;28;20033;-73
2021/01/08 01:50:21;;;;;;;18.53;6.77;;;1.80;87.90;;;;;;5050694;28;20044;-73
2021/01/08 01:52:47;;;;;;;13.60;6.30;;;1.80;88.00;;;;;;5052406;28;20033;-73
2021/01/08 01:55:13;;;;;;;16.00;6.93;;;1.80;88.00;;;;;;5051952;28;20032;-73
2021/01/08 01:57:40;;;;;;;14.60;7.30;;;1.80;88.20;;;;;;5052583;28;20120;-73
2021/01/08 02:00:06;;;;;;;13.83;6.03;;;1.80;88.20;;;;;;5051381;28;20028;-73
2021/01/08 02:02:39;;;;;;;14.83;6.33;;;1.80;88.10;;;;;;5050679;28;20115;-73
2021/01/08 02:05:08;;;;;;;15.23;6.83;;;1.80;88.30;;;;;;5052613;28;20025;-73
2021/01/08 02:07:41;;;;;;;15.80;7.23;;;1.80;88.50;;;;;;5050935;28;20036;-73
2021/01/08 02:10:08;;;;;;;17.70;7.23;;;1.80;88.70;;;;;;5051156;28;20060;-73
2021/01/08 02:12:35;;;;;;;16.70;7.63;;;1.80;88.80;;;;;;5050551;28;20051;-73
2021/01/08 02:15:02;;;;;;;20.17;8.27;;;1.80;89.00;;;;;;5052396;28;20028;-73
2021/01/08 02:17:28;;;;;;;18.20;7.77;;;1.80;89.00;;;;;;5050544;28;20051;-73
2021/01/08 02:20:01;;;;;;;20.60;8.63;;;1.80;88.90;;;;;;5052216;28;20561;-74
2021/01/08 02:22:44;;;;;;;17.43;7.13;;;1.80;88.90;;;;;;5050646;28;20120;-73
2021/01/08 02:25:13;;;;;;;19.10;8.37;;;1.80;89.20;;;;;;5052327;28;20029;-73
2021/01/08 02:27:41;;;;;;;15.40;7.53;;;1.80;89.30;;;;;;5051022;28;20025;-73
2021/01/08 02:30:08;;;;;;;19.10;8.37;;;1.80;89.90;;;;;;5050994;28;20119;-73
2021/01/08 02:32:34;;;;;;;16.07;6.80;;;1.80;89.30;;;;;;5051604;28;20306;-73
2021/01/08 02:35:03;;;;;;;17.90;7.33;;;1.80;89.30;;;;;;5050963;28;20056;-73
2021/01/08 02:37:38;;;;;;;18.07;7.47;;;1.80;89.50;;;;;;5050290;28;20108;-72
2021/01/08 02:40:04;;;;;;;17.37;7.47;;;1.80;89.50;;;;;;5050952;28;20496;-73
2021/01/08 02:42:32;;;;;;;16.27;7.20;;;1.70;89.60;;;;;;5051558;28;20037;-73
2021/01/08 02:44:57;;;;;;;19.87;8.47;;;1.80;89.80;;;;;;5050870;28;20360;-73
2021/01/08 02:47:23;;;;;;;19.73;7.53;;;1.70;89.90;;;;;;5051478;28;20044;-73
2021/01/08 02:49:48;;;;;;;15.63;7.80;;;1.70;89.80;;;;;;5050709;28;20033;-73
2021/01/08 02:52:14;;;;;;;16.03;8.10;;;1.70;89.90;;;;;;5050899;28;20450;-73
2021/01/08 02:54:41;;;;;;;19.67;8.30;;;1.70;90.00;;;;;;5051129;28;20471;-73
2021/01/08 02:57:07;;;;;;;16.57;7.63;;;1.70;89.90;;;;;;5050901;28;20025;-73
2021/01/08 02:59:34;;;;;;;19.37;8.33;;;1.70;89.90;;;;;;5050110;28;20104;-73
2021/01/08 03:02:01;;;;;;;18.20;7.67;;;1.70;89.90;;;;;;5051979;28;20021;-73
2021/01/08 03:04:28;;;;;;;20.83;7.53;;;1.70;89.90;;;;;;5051352;28;20021;-73
2021/01/08 03:06:53;;;;;;;17.17;8.00;;;1.70;89.80;;;;;;5052222;28;20543;-73
2021/01/08 03:09:20;;;;;;;19.73;7.47;;;1.70;90.00;;;;;;5049937;28;20056;-73
2021/01/08 03:11:53;;;;;;;21.03;8.53;;;1.70;90.00;;;;;;5050623;28;20025;-73
2021/01/08 03:14:20;;;;;;;21.13;8.10;;;1.70;89.60;;;;;;5050010;28;20029;-73
2021/01/08 03:16:46;;;;;;;17.27;8.20;;;1.80;89.90;;;;;;5051857;28;20025;-73
2021/01/08 03:19:12;;;;;;;20.67;8.40;;;1.80;89.90;;;;;;5054210;28;20031;-73
2021/01/08 03:21:37;;;;;;;20.73;8.30;;;1.80;89.60;;;;;;5053557;28;20520;-73
2021/01/08 03:24:03;;;;;;;19.07;7.80;;;1.80;89.40;;;;;;5054079;28;20497;-73
2021/01/08 03:26:29;;;;;;;19.00;7.93;;;1.80;89.40;;;;;;5053416;28;20052;-73
2021/01/08 03:28:54;;;;;;;16.57;7.33;;;1.80;89.30;;;;;;5055626;28;20509;-73
2021/01/08 03:31:20;;;;;;;16.43;7.33;;;1.80;89.30;;;;;;5054170;28;20052;-73
2021/01/08 03:33:45;;;;;;;18.03;7.73;;;1.90;89.30;;;;;;5053902;28;20428;-73
2021/01/08 03:36:11;;;;;;;20.80;8.33;;;1.90;89.20;;;;;;5053859;28;20420;-73
2021/01/08 03:38:37;;;;;;;18.10;7.77;;;1.90;89.20;;;;;;5053191;28;20033;-73
2021/01/08 03:41:02;;;;;;;20.03;8.00;;;1.90;89.20;;;;;;5055091;28;20033;-73
2021/01/08 03:43:28;;;;;;;19.03;8.10;;;1.90;89.00;;;;;;5052777;28;20033;-73
2021/01/08 03:45:53;;;;;;;19.87;8.00;;;1.90;89.40;;;;;;5054968;28;20078;-73
2021/01/08 03:48:19;;;;;;;19.27;8.27;;;1.90;89.00;;;;;;5053088;28;20021;-73
2021/01/08 03:50:44;;;;;;;17.23;8.17;;;1.90;89.40;;;;;;5053398;28;20041;-73
2021/01/08 03:53:10;;;;;;;17.57;8.17;;;1.90;89.60;;;;;;5054844;28;20037;-73
2021/01/08 03:55:36;;;;;;;18.50;8.43;;;1.90;89.50;;;;;;5054176;28;20021;-73
2021/01/08 03:58:01;;;;;;;17.77;8.53;;;1.90;89.20;;;;;;5054416;28;20032;-73
2021/01/08 04:00:27;;;;;;;17.43;7.60;;;1.90;89.00;;;;;;5053731;28;20532;-73
2021/01/08 04:02:53;;;;;;;17.23;7.47;;;1.90;89.10;;;;;;5053542;28;20033;-73
2021/01/08 04:05:18;;;;;;;19.17;8.03;;;1.90;89.10;;;;;;5054327;28;20470;-73
2021/01/08 04:07:44;;;;;;;17.40;7.77;;;1.90;89.00;;;;;;5054632;28;20071;-73
2021/01/08 04:10:10;;;;;;;17.10;7.63;;;2.00;88.80;;;;;;5053167;28;20033;-73
2021/01/08 04:12:35;;;;;;;18.30;7.63;;;1.90;88.50;;;;;;5053892;28;20375;-73
2021/01/08 04:15:01;;;;;;;17.63;7.90;;;2.00;88.30;;;;;;5053130;28;20060;-73
2021/01/08 04:17:27;;;;;;;15.67;7.57;;;2.00;88.20;;;;;;5052539;28;20028;-73
2021/01/08 04:19:52;;;;;;;15.13;7.37;;;2.00;88.40;;;;;;5054181;28;20074;-73
2021/01/08 04:22:18;;;;;;;17.03;8.00;;;1.90;88.40;;;;;;5054367;28;20040;-73
2021/01/08 04:24:44;;;;;;;16.70;7.40;;;1.90;88.80;;;;;;5052316;28;20474;-73
2021/01/08 04:27:09;;;;;;;13.57;6.83;;;2.00;88.80;;;;;;5054176;28;20470;-73
2021/01/08 04:29:35;;;;;;;16.63;7.57;;;2.00;88.70;;;;;;5051247;28;20120;-73
2021/01/08 04:32:00;;;;;;;18.47;7.00;;;2.00;88.80;;;;;;5052826;28;20390;-73
2021/01/08 04:34:26;;;;;;;15.33;7.53;;;2.00;88.80;;;;;;5052161;28;20115;-73
2021/01/08 04:36:52;;;;;;;16.77;7.67;;;2.00;88.80;;;;;;5052743;28;20036;-73
2021/01/08 04:39:17;;;;;;;16.43;6.80;;;2.00;89.10;;;;;;5052382;28;20025;-73
2021/01/08 04:41:43;;;;;;;17.03;7.60;;;2.00;89.10;;;;;;5053062;28;20036;-73
2021/01/08 04:44:09;;;;;;;21.17;7.87;;;2.00;89.20;;;;;;5052722;28;20029;-73
2021/01/08 04:46:36;;;;;;;15.63;6.97;;;2.00;89.30;;;;;;5051944;28;20082;-73
2021/01/08 04:49:07;;;;;;;15.43;6.87;;;1.90;89.60;;;;;;5053780;28;20025;-73
2021/01/08 04:51:36;;;;;;;16.17;7.53;;;2.00;90.00;;;;;;5052888;28;20083;-73
2021/01/08 04:54:04;;;;;;;20.07;7.87;;;1.90;90.20;;;;;;5053656;28;20174;-73
2021/01/08 04:56:40;;;;;;;15.80;7.00;;;1.90;90.30;;;;;;5051653;28;20484;-73
2021/01/08 04:59:06;;;;;;;13.27;6.50;;;1.90;90.30;;;;;;5052387;28;20119;-73
2021/01/08 05:01:31;;;;;;;16.03;6.57;;;1.90;90.40;;;;;;5053298;28;20450;-73
2021/01/08 05:03:57;;;;;;;14.43;6.70;;;2.00;90.40;;;;;;5052237;28;20021;-73
2021/01/08 05:06:23;;;;;;;15.07;6.80;;;2.00;90.20;;;;;;5052828;28;20052;-73
2021/01/08 05:08:49;;;;;;;14.80;7.03;;;2.00;90.20;;;;;;5052112;28;20410;-73
2021/01/08 05:11:29;;;;;;;15.77;6.63;;;2.00;90.10;;;;;;5052117;28;20079;-73
2021/01/08 05:14:00;;;;;;;14.80;6.57;;;2.00;90.00;;;;;;5053307;28;20501;-73
2021/01/08 05:16:28;;;;;;;17.58;6.93;;;1.90;90.00;;;;;;5052267;28;20025;-73
2021/01/08 05:18:55;;;;;;;13.30;6.03;;;1.90;89.70;;;;;;5051931;28;20067;-74
2021/01/08 05:21:24;;;;;;;14.13;6.00;;;1.90;89.60;;;;;;5051904;28;20029;-73
2021/01/08 05:23:51;;;;;;;17.47;6.73;;;2.00;89.80;;;;;;5053115;28;20029;-73
2021/01/08 05:26:16;;;;;;;14.57;6.03;;;1.90;89.20;;;;;;5051830;28;20083;-73
2021/01/08 05:28:53;;;;;;;15.53;6.23;;;1.90;89.40;;;;;;5051187;28;20025;-73
2021/01/08 05:31:21;;;;;;;14.73;7.27;;;1.90;89.60;;;;;;5051661;28;20084;-73
2021/01/08 05:33:48;;;;;;;16.90;6.23;;;1.90;89.60;;;;;;5051160;28;20037;-73
2021/01/08 05:36:15;;;;;;;12.97;6.10;;;1.90;89.60;;;;;;5051758;28;20355;-73
2021/01/08 05:38:46;;;;;;;13.67;5.40;;;1.90;89.20;;;;;;5051075;28;20120;-73
2021/01/08 05:41:12;;;;;;;14.03;6.07;;;1.90;89.00;;;;;;5051441;28;20116;-73
2021/01/08 05:43:39;;;;;;;16.10;6.23;;;1.90;89.00;;;;;;5052183;28;20052;-73
2021/01/08 05:46:13;;;;;;;14.07;6.53;;;1.90;89.00;;;;;;5052492;28;20158;-73
2021/01/08 05:48:41;;;;;;;13.60;5.43;;;1.90;88.90;;;;;;5050912;28;20038;-73
2021/01/08 05:51:08;;;;;;;12.83;5.53;;;2.00;88.90;;;;;;5051428;28;20041;-73
2021/01/08 05:53:34;;;;;;;15.20;6.10;;;2.00;88.90;;;;;;5051751;28;20033;-73
2021/01/08 05:56:00;;;;;;;13.93;5.97;;;2.00;88.90;;;;;;5051656;28;20028;-73
2021/01/08 05:58:28;;;;;;;12.40;5.70;;;2.00;88.90;;;;;;5050837;28;20462;-73
2021/01/08 06:00:54;;;;;;;12.10;5.80;;;2.00;88.80;;;;;;5051264;28;20036;-73
2021/01/08 06:03:22;;;;;;;14.87;7.37;;;2.00;88.60;;;;;;5051291;28;20119;-73
2021/01/08 06:05:50;;;;;;;12.20;5.90;;;2.00;88.60;;;;;;5051885;28;20524;-73
2021/01/08 06:08:19;;;;;;;12.33;5.47;;;2.00;88.60;;;;;;5052446;28;20026;-73
2021/01/08 06:10:51;;;;;;;15.63;6.13;;;2.00;88.60;;;;;;5051827;28;20056;-73
2021/01/08 06:13:20;;;;;;;10.50;4.53;;;2.00;88.50;;;;;;5051204;28;20029;-73
2021/01/08 06:15:46;;;;;;;13.80;5.57;;;2.00;88.50;;;;;;5052082;28;20036;-73
2021/01/08 06:18:14;;;;;;;12.27;5.97;;;2.00;88.40;;;;;;5052439;28;20549;-73
2021/01/08 06:20:41;;;;;;;14.07;6.60;;;2.00;88.30;;;;;;5050518;28;20064;-73
2021/01/08 06:23:06;;;;;;;11.87;5.17;;;2.00;88.40;;;;;;5051037;28;20036;-73
2021/01/08 06:25:33;;;;;;;14.20;6.50;;;2.00;88.50;;;;;;5050457;28;20115;-73
2021/01/08 06:28:03;;;;;;;12.90;5.57;;;2.00;88.70;;;;;;5052374;28;20032;-73
2021/01/08 06:30:33;;;;;;;15.20;5.83;;;1.90;88.80;;;;;;5050316;28;20442;-72
2021/01/08 06:33:04;;;;;;;13.57;7.10;;;1.90;89.10;;;;;;5051782;28;20048;-73
2021/01/08 06:35:33;;;;;;;11.27;5.90;;;1.90;89.20;;;;;;5051607;28;20033;-73
2021/01/08 06:37:59;;;;;;;13.53;5.90;;;1.90;89.30;;;;;;5051233;28;20032;-73
2021/01/08 06:40:41;;;;;;;16.07;6.53;;;1.90;89.20;;;;;;5050918;28;20029;-73
2021/01/08 06:43:16;;;;;;;15.40;6.23;;;1.90;89.40;;;;;;5051047;28;20351;-73
2021/01/08 06:45:49;;;;;;;14.90;6.30;;;1.90;89.40;;;;;;5050368;28;20025;-73
2021/01/08 06:48:16;;;;;;;13.50;6.53;;;1.90;89.40;;;;;;5051130;28;20029;-73
2021/01/08 06:50:43;;;;;;;14.43;6.40;;;1.90;89.60;;;;;;5049873;28;20068;-73
2021/01/08 06:53:15;;;;;;;33.50;13.43;;;1.90;90.00;;;;;;5052954;28;20032;-74
2021/01/08 06:55:46;;;;;;;14.52;6.80;;;1.90;89.30;;;;;;5055315;28;20040;-73
2021/01/08 06:58:18;;;;;;;12.33;5.80;;;2.00;89.00;;;;;;5054556;28;20488;-73
2021/01/08 07:00:47;;;;;;;;;;;1.90;88.90;;;;;;5054476;28;20025;-73
2021/01/08 07:03:14;;;;;;;37.27;15.10;;;1.90;88.90;;;;;;5055950;28;19951;-73
2021/01/08 07:05:40;;;;;;;15.50;7.07;;;1.90;89.30;;;;;;5053836;28;20036;-73
2021/01/08 07:08:06;;;;;;;14.83;6.50;;;2.00;88.90;;;;;;5054662;28;20025;-73
2021/01/08 07:10:35;;;;;;;13.03;6.27;;;2.00;88.80;;;;;;5053638;28;20078;-73
2021/01/08 07:13:03;;;;;;;13.90;6.57;;;2.00;88.90;;;;;;5054271;28;20029;-73
2021/01/08 07:15:31;;;;;;;14.23;6.83;;;2.00;89.10;;;;;;5054260;28;20033;-73
2021/01/08 07:17:59;;;;;;;12.53;6.00;;;2.00;89.00;;;;;;5054175;28;20025;-73
2021/01/08 07:20:25;;;;;;;12.77;6.20;;;2.00;88.90;;;;;;5053952;28;20070;-73
2021/01/08 07:22:55;;;;;;;13.13;6.37;;;2.00;88.90;;;;;;5053502;28;20610;-73
2021/01/08 07:25:24;;;;;;;14.20;6.70;;;2.00;88.90;;;;;;5055410;28;20103;-73
2021/01/08 07:27:51;;;;;;;13.50;6.53;;;1.90;88.70;;;;;;5053408;28;20029;-73
2021/01/08 07:30:17;;;;;;;15.17;6.37;;;2.00;88.90;;;;;;5055014;28;20175;-73
2021/01/08 07:32:51;;;;;;;16.93;6.77;;;2.00;88.80;;;;;;5053047;28;20398;-73
2021/01/08 07:35:25;;;;;;;12.20;5.77;;;2.00;88.50;;;;;;5053888;28;20425;-73
2021/01/08 07:37:58;;;;;;;12.77;6.00;;;2.00;88.20;;;;;;5054246;28;20407;-73
2021/01/08 07:40:29;;;;;;;11.90;6.10;;;2.00;88.40;;;;;;5053815;28;20386;-73
2021/01/08 07:43:01;;;;;;;13.80;6.27;;;2.00;88.30;;;;;;5053143;28;20070;-73
2021/01/08 07:45:54;;;;;;;14.20;6.82;;;2.00;88.20;;;;;;5053661;28;20354;-73
2021/01/08 07:48:40;;;;;;;16.40;6.67;;;2.00;88.20;;;;;;5053630;28;20025;-73
2021/01/08 07:51:07;;;;;;;13.13;6.47;;;2.00;88.30;;;;;;5053669;28;20397;-74
2021/01/08 07:53:47;;;;;;;13.10;6.10;;;2.00;88.30;;;;;;5054796;28;20037;-73
2021/01/08 07:56:21;;;;;;;14.87;6.30;;;2.00;88.20;;;;;;5055008;28;20082;-73
2021/01/08 07:59:07;;;;;;;13.20;6.20;;;2.00;87.90;;;;;;5052962;28;20029;-73
2021/01/08 08:01:36;;;;;;;14.60;6.30;;;2.00;87.80;;;;;;5054459;28;20123;-73
2021/01/08 08:04:09;;;;;;;14.43;6.57;;;2.00;87.80;;;;;;5054560;28;20138;-74
2021/01/08 08:06:37;;;;;;;14.47;5.87;;;2.00;87.90;;;;;;5052441;28;20086;-75
2021/01/08 08:09:05;;;;;;;15.43;6.17;;;2.00;87.60;;;;;;5053329;28;20492;-73
2021/01/08 08:11:35;;;;;;;15.93;6.40;;;2.00;87.50;;;;;;5053152;28;20486;-73
2021/01/08 08:14:03;;;;;;;14.63;5.90;;;2.00;87.10;;;;;;5053166;28;20052;-73
2021/01/08 08:16:33;;;;;;;17.63;5.67;;;2.10;87.10;;;;;;5053164;28;20398;-73
2021/01/08 08:18:58;;;;;;;13.23;6.13;;;2.00;86.70;;;;;;5053984;28;20029;-73
2021/01/08 08:21:24;;;;;;;15.27;6.00;;;2.00;86.40;;;;;;5053943;28;20186;-73
2021/01/08 08:23:58;;;;;;;55.13;21.90;;;2.10;86.50;;;;;;5053614;28;20103;-73
2021/01/08 08:26:25;;;;;;;22.77;8.37;;;2.10;86.50;;;;;;5052866;28;20129;-73
2021/01/08 08:29:05;;;;;;;16.67;6.80;;;2.10;86.30;;;;;;5052198;28;20028;-73
2021/01/08 08:31:33;;;;;;;47.60;16.57;;;2.10;86.10;;;;;;5052172;28;20053;-73
2021/01/08 08:33:59;;;;;;;27.63;9.43;;;2.20;86.50;;;;;;5053317;28;20029;-73
2021/01/08 08:36:26;;;;;;;14.43;6.77;;;2.20;86.60;;;;;;5052686;28;20017;-73
2021/01/08 08:38:56;;;;;;;15.00;6.30;;;2.30;86.00;;;;;;5051737;28;20079;-73
2021/01/08 08:41:22;;;;;;;14.13;5.90;;;2.20;85.80;;;;;;5053942;28;20031;-73
2021/01/08 08:43:47;;;;;;;18.00;5.80;;;2.30;85.80;;;;;;5051946;28;20025;-72
2021/01/08 08:46:13;;;;;;;17.20;6.37;;;2.20;85.00;;;;;;5053787;28;20060;-74
2021/01/08 08:48:39;;;;;;;13.23;5.97;;;2.20;85.30;;;;;;5053108;28;20032;-73
2021/01/08 08:51:05;;;;;;;12.27;6.20;;;2.20;85.20;;;;;;5053366;28;20045;-73
2021/01/08 08:53:31;;;;;;;13.27;5.97;;;2.30;84.10;;;;;;5053385;28;20086;-73
2021/01/08 08:55:57;;;;;;;13.50;5.60;;;2.20;84.10;;;;;;5051760;28;20478;-73
2021/01/08 08:58:23;;;;;;;12.43;5.77;;;2.20;84.20;;;;;;5051926;28;20087;-73
2021/01/08 09:00:52;;;;;;;12.73;5.73;;;2.20;84.00;;;;;;5052843;28;20029;-73
2021/01/08 09:03:21;;;;;;;12.80;5.10;;;2.20;84.00;;;;;;5052155;28;20481;-74
2021/01/08 09:05:49;;;;;;;14.10;5.67;;;2.20;84.40;;;;;;5052686;28;20025;-73
2021/01/08 09:08:36;;;;;;;13.47;5.73;;;2.20;84.30;;;;;;5051980;28;20119;-73
2021/01/08 09:11:32;;;;;;;9.93;5.17;;;2.20;83.50;;;;;;5052845;28;20028;-73
2021/01/08 09:14:18;;;;;;;16.07;5.90;;;2.20;83.90;;;;;;5051431;28;20052;-73
2021/01/08 09:16:51;;;;;;;12.03;5.77;;;2.20;83.20;;;;;;5050288;28;20389;-73
2021/01/08 09:19:25;;;;;;;11.43;5.27;;;2.20;83.20;;;;;;5052023;28;20060;-73
2021/01/08 09:21:52;;;;;;;12.47;4.93;;;2.20;82.50;;;;;;5051250;28;20029;-73
2021/01/08 09:24:23;;;;;;;11.00;5.37;;;2.20;82.30;;;;;;5051778;28;20115;-73
2021/01/08 09:26:52;;;;;;;7.75;4.35;;;2.20;81.00;;;;;;5051252;28;20040;-73
2021/01/08 09:29:28;;;;;;;10.63;5.23;;;2.20;80.60;;;;;;5051673;28;20029;-73
2021/01/08 09:31:54;;;;;;;10.07;5.00;;;2.20;80.10;;;;;;5051006;28;20136;-73
2021/01/08 09:34:21;;;;;;;12.37;5.37;;;2.20;79.40;;;;;;5051577;28;20458;-73
2021/01/08 09:36:48;;;;;;;33.10;12.70;;;2.20;80.00;;;;;;5050659;28;20071;-72
2021/01/08 09:39:14;;;;;;;11.20;5.50;;;2.20;80.20;;;;;;5052481;28;20150;-73
2021/01/08 09:41:41;;;;;;;12.00;4.70;;;2.20;78.90;;;;;;5052059;28;20033;-73
2021/01/08 09:44:09;;;;;;;9.00;4.77;;;2.20;79.30;;;;;;5051646;28;20133;-73
2021/01/08 09:46:57;;;;;;;8.77;4.67;;;2.20;79.60;;;;;;5052638;28;20082;-73
2021/01/08 09:49:24;;;;;;;14.13;5.07;;;2.20;79.40;;;;;;5055337;28;20020;-73
2021/01/08 09:52:00;;;;;;;9.13;4.80;;;2.20;79.90;;;;;;5054391;28;20076;-73
2021/01/08 09:54:48;;;;;;;9.47;4.40;;;2.20;80.60;;;;;;5052446;28;20032;-73
2021/01/08 09:57:30;;;;;;;11.27;4.93;;;2.10;81.50;;;;;;5051721;28;20032;-75
2021/01/08 09:59:58;;;;;;;9.60;5.30;;;2.00;81.60;;;;;;5052797;28;20040;-73
2021/01/08 10:02:46;;;;;;;12.90;5.30;;;2.00;83.40;;;;;;5052315;28;20025;-73
2021/01/08 10:05:34;;;;;;;11.17;5.07;;;2.00;83.40;;;;;;5049530;28;20543;-73
2021/01/08 10:08:01;;;;;;;10.90;5.37;;;2.00;82.00;;;;;;5048910;28;20311;-73
2021/01/08 10:10:27;;;;;;;14.07;5.47;;;2.00;82.40;;;;;;5053427;28;20037;-73
2021/01/08 10:12:54;;;;;;;12.03;5.93;;;2.00;82.90;;;;;;5055957;28;20029;-73
2021/01/08 10:15:46;;;;;;;11.87;5.57;;;2.10;82.80;;;;;;5073165;28;20035;-74
2021/01/08 10:18:22;;;;;;;29.27;10.57;;;2.20;83.20;;;;;;5058683;28;20145;-73
2021/01/08 10:20:53;;;;;;;18.43;7.80;;;2.30;84.40;;;;;;5064133;28;20029;-73
2021/01/08 10:23:27;;;;;;;19.27;8.83;;;2.30;83.70;;;;;;5062364;28;20033;-74
2021/01/08 10:25:53;;;;;;;13.57;6.23;;;2.20;84.00;;;;;;5066006;28;20025;-74
2021/01/08 10:28:25;;;;;;;12.80;5.67;;;2.20;84.60;;;;;;5056769;28;20104;-74
2021/01/08 10:30:55;;;;;;;10.07;4.60;;;2.20;84.50;;;;;;5070539;28;20470;-74
2021/01/08 10:33:25;;;;;;;12.97;5.50;;;2.10;85.40;;;;;;5063908;28;20405;-73
2021/01/08 10:35:53;;;;;;;12.83;5.60;;;2.10;86.00;;;;;;5063386;28;20111;-74
2021/01/08 10:38:19;;;;;;;10.90;5.50;;;2.00;86.50;;;;;;5060300;28;20021;-73
2021/01/08 10:40:44;;;;;;;11.87;5.70;;;2.00;86.50;;;;;;5073286;28;20060;-73
2021/01/08 10:43:10;;;;;;;12.37;6.07;;;1.90;86.80;;;;;;5065639;28;20025;-73
2021/01/08 10:45:37;;;;;;;13.50;6.00;;;1.90;87.10;;;;;;5065105;28;20032;-73
2021/01/08 10:48:03;;;;;;;14.90;5.83;;;1.90;87.40;;;;;;5068562;28;20063;-73
2021/01/08 10:50:29;;;;;;;12.17;5.70;;;1.90;87.20;;;;;;5057622;28;20497;-73
2021/01/08 10:52:55;;;;;;;13.10;5.93;;;1.90;87.40;;;;;;5070417;28;20029;-74
2021/01/08 10:55:20;;;;;;;13.27;6.13;;;1.90;87.40;;;;;;5056514;28;20064;-73
2021/01/08 10:57:46;;;;;;;14.50;6.10;;;1.90;87.80;;;;;;5072637;28;20039;-74
2021/01/08 11:00:13;;;;;;;14.93;6.23;;;1.90;87.70;;;;;;5075080;28;20032;-73
2021/01/08 11:02:40;;;;;;;12.67;5.80;;;1.90;87.30;;;;;;5063625;28;20033;-73
2021/01/08 11:05:07;;;;;;;12.63;6.20;;;1.90;87.00;;;;;;5057371;28;20031;-73
2021/01/08 11:07:33;;;;;;;13.83;6.27;;;1.90;87.40;;;;;;5065683;28;20078;-74
2021/01/08 11:10:00;;;;;;;15.80;5.93;;;2.00;87.30;;;;;;5060196;28;20037;-74
2021/01/08 11:12:26;;;;;;;12.83;5.87;;;1.90;86.60;;;;;;5070649;28;20416;-73
2021/01/08 11:14:53;;;;;;;13.10;5.87;;;2.00;86.50;;;;;;5059018;28;20024;-74
2021/01/08 11:17:19;;;;;;;13.20;6.03;;;2.00;85.60;;;;;;5065084;28;20035;-73
2021/01/08 11:19:44;;;;;;;11.60;6.03;;;2.00;86.00;;;;;;5065951;28;20026;-74
2021/01/08 11:22:10;;;;;;;14.30;5.73;;;2.00;86.20;;;;;;5057827;28;20036;-73
2021/01/08 11:24:37;;;;;;;12.10;5.80;;;2.10;86.00;;;;;;5066112;28;20110;-73
2021/01/08 11:27:04;;;;;;;14.17;6.60;;;2.10;85.80;;;;;;5068063;28;20230;-73
2021/01/08 11:29:30;;;;;;;13.37;6.13;;;2.10;85.00;;;;;;5074004;28;20600;-73
2021/01/08 11:31:55;;;;;;;12.67;6.23;;;2.10;85.10;;;;;;5072755;28;20131;-73
2021/01/08 11:34:21;;;;;;;12.77;5.20;;;2.10;84.90;;;;;;5074022;28;20029;-73
2021/01/08 11:36:47;;;;;;;13.93;6.40;;;2.10;85.20;;;;;;5071638;28;20115;-73
2021/01/08 11:39:14;;;;;;;13.40;5.83;;;2.10;85.00;;;;;;5072179;28;20362;-73
2021/01/08 11:41:40;;;;;;;13.97;6.07;;;2.10;84.10;;;;;;5073966;28;20025;-73
2021/01/08 11:44:06;;;;;;;12.20;5.57;;;2.10;84.60;;;;;;5072158;28;20024;-73
2021/01/08 11:46:32;;;;;;;13.13;5.60;;;2.10;84.80;;;;;;5073941;28;20036;-74
2021/01/08 11:48:58;;;;;;;13.67;5.70;;;2.10;84.30;;;;;;5071978;28;20021;-73
2021/01/08 11:51:23;;;;;;;12.67;6.00;;;2.10;85.30;;;;;;5072261;28;20043;-73
2021/01/08 11:53:52;;;;;;;13.07;6.37;;;2.10;84.40;;;;;;5071368;28;20036;-73
2021/01/08 11:56:25;;;;;;;14.27;6.00;;;2.10;84.30;;;;;;5052621;28;20394;-73
2021/01/08 11:58:51;;;;;;;13.47;6.50;;;2.10;84.20;;;;;;5058849;28;20457;-73
2021/01/08 12:01:16;;;;;;;13.97;6.57;;;2.10;84.60;;;;;;5057587;28;20035;-73
2021/01/08 12:03:42;;;;;;;14.33;5.90;;;2.20;84.70;;;;;;5064538;28;20017;-73
2021/01/08 12:06:08;;;;;;;13.30;5.70;;;2.20;84.20;;;;;;5064337;28;20029;-73
2021/01/08 12:08:36;;;;;;;11.43;5.77;;;2.20;83.60;;;;;;5058218;28;20170;-73
2021/01/08 12:11:03;;;;;;;13.10;6.17;;;2.30;84.10;;;;;;5051506;28;20470;-73
2021/01/08 12:13:29;;;;;;;14.60;5.60;;;2.30;82.50;;;;;;5052297;28;20060;-75
2021/01/08 12:15:55;;;;;;;13.50;6.00;;;2.40;82.40;;;;;;5053307;28;20102;-76
2021/01/08 12:18:20;;;;;;;11.87;6.03;;;2.50;81.60;;;;;;5053690;28;20028;-76
2021/01/08 12:20:47;;;;;;;12.27;6.00;;;2.60;80.70;;;;;;5052518;28;20037;-76
2021/01/08 12:23:13;;;;;;;13.70;6.13;;;2.60;80.10;;;;;;5052534;28;20098;-76
2021/01/08 12:25:41;;;;;;;13.40;5.57;;;2.60;80.10;;;;;;5053517;28;20041;-75
2021/01/08 12:28:07;;;;;;;15.20;6.20;;;2.60;80.30;;;;;;5053402;28;20320;-76
2021/01/08 12:30:34;;;;;;;13.83;5.93;;;2.70;80.10;;;;;;5052554;28;20029;-76
2021/01/08 12:33:00;;;;;;;13.50;6.20;;;2.70;80.80;;;;;;5030864;28;622407;-76
2021/01/08 12:35:26;;;;;;;14.07;5.53;;;2.70;79.30;;;;;;5054870;28;20025;-76
2021/01/08 12:37:52;;;;;;;13.30;5.83;;;2.60;79.60;;;;;;5053056;28;20084;-77
2021/01/08 12:40:19;;;;;;;12.30;5.63;;;2.50;79.80;;;;;;5054685;28;20029;-78
2021/01/08 12:42:49;;;;;;;11.33;5.27;;;2.50;80.10;;;;;;5053892;28;20025;-76
2021/01/08 12:45:16;;;;;;;11.77;5.87;;;2.60;80.00;;;;;;5053213;28;20112;-76
2021/01/08 12:47:42;;;;;;;13.33;5.90;;;2.60;80.30;;;;;;5053746;28;20029;-76
2021/01/08 12:50:09;;;;;;;11.47;5.03;;;2.60;80.60;;;;;;5051950;28;20048;-76
2021/01/08 12:52:34;;;;;;;11.17;5.60;;;2.60;80.40;;;;;;5053362;28;20118;-76